Fairchild Air Force Base
KSKA : now visible

Airfield :











YOU CAN JOIN US ON...

 
LOGIN :

Register | Disclaimer

   EN    FR    IT 

 









Legend :    VFR   Marginal VFR   IFR   Intensive IFR   Very Intensive IFR
Visi :
Ceiling :
>= 8 km
>= 3000ft
5 to 8 km
1000 to 3000 ft
1500m to 5 km
500 to 1000 ft
800 to 1500m
200 to 500 ft
< 800m
< 200 ft
Symbols :   Thunderstorms  Fog  Heavy snow  Heavy precipitations  Wind > 20 kt






- Airport Elevation : 2461 ft


KSKA - Fairchild Air Force Base

CURRENT METAR :
  • 071958Z 25011KT 10SM FEW150 FEW170 FEW200 12/M01 A3004 RMK AO2A SLP182 T01211008 $

EXPIRED METARs :
  • 071858Z 20008KT 10SM FEW190 11/00 A3004 RMK AO2A SLP182 T01120000 $

TAF TAF KSKA
Valid from the 07 at 19:00 until the 09 at 01:00 UTC


071900Z 0719/0901 20009KT 9999 FEW060 FEW200 QNH3001INS
BECMG 0720/0721 24012G18KT 9999 FEW060 SCT200 QNH3000INS
BECMG 0802/0803 23009KT 9999 FEW200 QNH3005INS WND 23006KT AFT 0806 TX15/0800Z TN01/0813Z



MET'MAP, your aeronautical weather chart ! - Copyright ORBIFLY December 2007 - Disclaimer

ORBIFLY MET'MAP TEAM :

Programming & Development : Alexandra Zaïnal
Concept & original design : Baudouin d'Aumeries
Assistance for programming : Marc-Olivier Méhu
Technical & hardware support : Manuel Goepfert

Contact : metmap@orbifly.com




SOURCES & CREDITS :

   NOAA       Earth
Advisory